createdAt,value
2022-07-29T00:00:45.802Z,101603.16
2022-07-29T00:03:07.701Z,101596.38
2022-07-29T00:05:30.016Z,101596.44
2022-07-29T00:07:51.988Z,101596.81
2022-07-29T00:10:13.884Z,101586.00
2022-07-29T00:12:35.688Z,101585.63
2022-07-29T00:14:58.263Z,101592.03
2022-07-29T00:17:20.076Z,101588.44
2022-07-29T00:19:45.463Z,101592.03
2022-07-29T00:22:07.495Z,101584.03
2022-07-29T00:24:29.348Z,101592.78
2022-07-29T00:26:51.155Z,101582.75
2022-07-29T00:31:54.886Z,101583.59
2022-07-29T00:34:35.710Z,101574.81
2022-07-29T00:36:58.757Z,101578.81
2022-07-29T00:39:20.548Z,101577.56
2022-07-29T00:41:42.395Z,101583.16
2022-07-29T00:44:04.342Z,101583.16
2022-07-29T00:46:26.150Z,101587.56
2022-07-29T00:48:48.052Z,101582.75
2022-07-29T00:51:11.227Z,101588.00
2022-07-29T00:53:33.209Z,101587.66
2022-07-29T00:55:56.246Z,101584.44
2022-07-29T00:58:18.242Z,101588.34
2022-07-29T01:00:41.755Z,101591.91
2022-07-29T01:03:03.761Z,101597.06
2022-07-29T01:05:51.053Z,101580.16
2022-07-29T01:08:14.534Z,101589.50
2022-07-29T01:10:40.462Z,101601.72
2022-07-29T01:13:03.028Z,101597.13
2022-07-29T01:15:30.573Z,101603.41
2022-07-29T01:18:04.290Z,101607.66
2022-07-29T01:20:52.773Z,101613.50
2022-07-29T01:24:11.600Z,101614.91
2022-07-29T01:26:46.734Z,101610.56
2022-07-29T01:29:31.014Z,101611.00
2022-07-29T01:32:27.600Z,101619.50
2022-07-29T01:35:26.015Z,101636.13
2022-07-29T01:38:11.201Z,101657.78
2022-07-29T01:40:50.473Z,101650.72
2022-07-29T01:43:21.008Z,101643.72
2022-07-29T01:45:47.755Z,101643.91
2022-07-29T01:48:35.106Z,101638.16
2022-07-29T01:51:13.312Z,101638.81
2022-07-29T01:53:48.351Z,101628.38
2022-07-29T01:56:14.461Z,101624.97
2022-07-29T01:58:41.065Z,101624.41
2022-07-29T02:01:05.931Z,101608.78
2022-07-29T02:03:31.484Z,101607.78
2022-07-29T02:05:56.660Z,101610.06
2022-07-29T02:08:20.997Z,101599.19
2022-07-29T02:10:45.482Z,101585.44
2022-07-29T02:13:10.494Z,101580.81
2022-07-29T02:15:36.542Z,101574.34
2022-07-29T02:18:08.473Z,101563.03
2022-07-29T02:20:33.062Z,101544.19
2022-07-29T02:22:56.736Z,101543.53
2022-07-29T02:25:21.728Z,101540.72
2022-07-29T02:27:45.425Z,101534.75
2022-07-29T02:30:09.217Z,101535.28
2022-07-29T02:32:35.308Z,101537.84
2022-07-29T02:34:59.879Z,101530.22
2022-07-29T02:37:22.559Z,101529.03
2022-07-29T02:39:47.926Z,101529.50
2022-07-29T02:42:16.595Z,101518.38
2022-07-29T02:44:38.726Z,101511.22
2022-07-29T02:47:15.906Z,101520.63
2022-07-29T02:50:05.431Z,101499.78
2022-07-29T02:52:43.927Z,101495.19
2022-07-29T02:55:17.806Z,101494.75
2022-07-29T02:57:54.020Z,101498.78
2022-07-29T03:00:18.314Z,101495.53
2022-07-29T03:02:45.977Z,101497.50
2022-07-29T03:05:12.162Z,101499.03
2022-07-29T03:07:36.379Z,101496.97
2022-07-29T03:10:00.027Z,101497.88
2022-07-29T03:12:23.527Z,101510.59
2022-07-29T03:14:47.186Z,101507.91
2022-07-29T03:17:11.242Z,101522.28
2022-07-29T03:19:35.214Z,101523.53
2022-07-29T03:21:59.340Z,101508.50
2022-07-29T03:24:31.286Z,101502.13
2022-07-29T03:26:53.313Z,101503.63
2022-07-29T03:29:15.093Z,101500.03
2022-07-29T03:31:36.902Z,101500.84
2022-07-29T03:33:59.360Z,101504.47
2022-07-29T03:36:21.161Z,101506.53
2022-07-29T03:38:46.967Z,101502.22
2022-07-29T03:41:12.614Z,101509.50
2022-07-29T03:43:40.042Z,101507.53
2022-07-29T03:46:14.976Z,101506.00
2022-07-29T03:48:43.524Z,101513.63
2022-07-29T03:51:05.436Z,101515.34
2022-07-29T03:53:30.182Z,101521.50
2022-07-29T03:56:00.412Z,101525.63
2022-07-29T03:58:24.249Z,101520.16
2022-07-29T04:00:47.572Z,101527.69
2022-07-29T04:03:11.903Z,101529.31
2022-07-29T04:05:34.321Z,101524.56
2022-07-29T04:07:56.509Z,101530.91
2022-07-29T04:10:30.119Z,101530.13
2022-07-29T04:12:53.701Z,101528.50
2022-07-29T04:15:15.660Z,101525.28
2022-07-29T04:17:37.912Z,101516.47
2022-07-29T04:19:59.720Z,101514.41
2022-07-29T04:22:21.536Z,101514.66
2022-07-29T04:24:44.840Z,101512.22
2022-07-29T04:27:06.672Z,101518.59
2022-07-29T04:29:28.554Z,101527.84
2022-07-29T04:31:50.651Z,101527.13
2022-07-29T04:34:13.609Z,101537.19
2022-07-29T04:36:36.025Z,101543.66
2022-07-29T04:38:58.586Z,101548.16
2022-07-29T04:41:20.835Z,101543.03
2022-07-29T04:43:43.303Z,101547.44
2022-07-29T04:46:07.597Z,101540.63
2022-07-29T04:48:29.613Z,101539.72
2022-07-29T04:50:51.570Z,101551.09
2022-07-29T04:53:13.369Z,101558.63
2022-07-29T04:55:35.310Z,101555.84
2022-07-29T04:58:01.213Z,101547.84
2022-07-29T05:00:29.211Z,101551.69
2022-07-29T05:02:55.338Z,101555.91
2022-07-29T05:05:17.395Z,101560.19
2022-07-29T05:07:39.198Z,101567.72
2022-07-29T05:10:01.196Z,101572.59
2022-07-29T05:12:22.957Z,101569.81
2022-07-29T05:14:44.824Z,101572.13
2022-07-29T05:17:06.835Z,101566.44
2022-07-29T05:19:28.586Z,101567.16
2022-07-29T05:21:50.945Z,101566.00
2022-07-29T05:24:12.953Z,101560.06
2022-07-29T05:26:34.980Z,101563.31
2022-07-29T05:28:57.984Z,101562.53
2022-07-29T05:31:20.021Z,101556.16
2022-07-29T05:33:42.902Z,101550.13
2022-07-29T05:36:08.685Z,101549.22
2022-07-29T05:38:30.469Z,101565.88
2022-07-29T05:40:52.262Z,101574.34
2022-07-29T05:43:14.051Z,101578.94
2022-07-29T05:45:36.045Z,101579.97
2022-07-29T05:48:11.865Z,101576.56
2022-07-29T05:50:34.061Z,101568.22
2022-07-29T05:52:55.881Z,101563.72
2022-07-29T05:55:18.383Z,101579.03
2022-07-29T05:57:40.807Z,101572.22
2022-07-29T06:00:03.989Z,101569.00
2022-07-29T06:02:34.225Z,101564.50
2022-07-29T06:04:56.189Z,101570.41
2022-07-29T06:07:18.101Z,101576.28
2022-07-29T06:09:40.203Z,101571.91
2022-07-29T06:12:02.368Z,101581.41
2022-07-29T06:14:24.250Z,101579.44
2022-07-29T06:16:46.272Z,101579.53
2022-07-29T06:19:08.342Z,101572.84
2022-07-29T06:21:31.631Z,101577.69
2022-07-29T06:23:53.444Z,101575.69
2022-07-29T06:26:15.330Z,101574.91
2022-07-29T06:28:37.156Z,101562.16
2022-07-29T06:30:59.398Z,101560.53
2022-07-29T06:33:21.313Z,101568.88
2022-07-29T06:35:53.139Z,101566.56
2022-07-29T06:38:31.392Z,101571.88
2022-07-29T06:41:02.836Z,101579.50
2022-07-29T06:43:24.634Z,101587.94
2022-07-29T06:45:48.330Z,101583.19
2022-07-29T06:48:10.867Z,101588.84
2022-07-29T06:50:32.774Z,101578.97
2022-07-29T06:52:54.564Z,101582.22
2022-07-29T06:55:24.710Z,101573.19
2022-07-29T06:57:47.460Z,101581.16
2022-07-29T07:00:14.437Z,101576.41
2022-07-29T07:02:36.454Z,101573.63
2022-07-29T07:04:58.328Z,101579.19
2022-07-29T07:07:20.085Z,101581.63
2022-07-29T07:09:42.883Z,101577.78
2022-07-29T07:12:05.299Z,101576.34
2022-07-29T07:14:28.374Z,101576.81
2022-07-29T07:16:50.270Z,101591.19
2022-07-29T07:19:14.601Z,101595.59
2022-07-29T07:21:36.502Z,101595.34
2022-07-29T07:24:00.620Z,101580.34
2022-07-29T07:26:22.474Z,101594.34
2022-07-29T07:28:44.379Z,101601.09
2022-07-29T07:31:06.399Z,101598.72
2022-07-29T07:33:28.441Z,101595.53
2022-07-29T07:35:50.325Z,101602.69
2022-07-29T07:38:12.350Z,101605.56
2022-07-29T07:40:34.597Z,101609.38
2022-07-29T07:42:56.481Z,101598.44
2022-07-29T07:45:18.554Z,101597.00
2022-07-29T07:47:40.516Z,101596.66
2022-07-29T07:50:02.424Z,101599.91
2022-07-29T07:52:24.333Z,101605.09
2022-07-29T07:54:46.216Z,101612.66
2022-07-29T07:57:08.096Z,101613.28
2022-07-29T07:59:30.077Z,101613.94
2022-07-29T08:01:56.175Z,101605.81
2022-07-29T08:04:22.214Z,101605.63
2022-07-29T08:06:50.792Z,101597.03
2022-07-29T08:09:28.212Z,101602.22
2022-07-29T08:11:52.487Z,101595.38
2022-07-29T08:14:14.989Z,101598.19
2022-07-29T08:16:37.014Z,101605.81
2022-07-29T08:18:58.883Z,101602.38
2022-07-29T08:21:20.762Z,101605.44
2022-07-29T08:23:57.639Z,101604.88
2022-07-29T08:26:23.614Z,101618.44
2022-07-29T08:28:49.721Z,101619.78
2022-07-29T08:31:11.606Z,101623.88
2022-07-29T08:33:34.487Z,101621.69
2022-07-29T08:35:56.412Z,101615.81
2022-07-29T08:38:18.216Z,101614.59
2022-07-29T08:40:40.638Z,101617.53
2022-07-29T08:43:09.913Z,101620.06
2022-07-29T08:45:48.093Z,101618.97
2022-07-29T08:48:10.367Z,101616.91
2022-07-29T08:50:32.391Z,101613.22
2022-07-29T08:52:59.640Z,101624.72
2022-07-29T08:55:21.996Z,101629.06
2022-07-29T08:57:51.109Z,101626.19
2022-07-29T09:00:18.457Z,101617.31
2022-07-29T09:02:48.069Z,101629.53
2022-07-29T09:05:11.461Z,101620.38
2022-07-29T09:07:34.881Z,101617.34
2022-07-29T09:09:57.354Z,101616.66
2022-07-29T09:12:29.488Z,101620.06
2022-07-29T09:14:52.290Z,101612.25
2022-07-29T09:17:17.818Z,101613.28
2022-07-29T09:19:39.768Z,101623.03
2022-07-29T09:22:10.420Z,101621.06
2022-07-29T09:24:46.342Z,101617.94
2022-07-29T09:27:18.193Z,101617.66
2022-07-29T09:29:40.573Z,101613.72
2022-07-29T09:32:10.615Z,101618.16
2022-07-29T09:34:32.947Z,101605.34
2022-07-29T09:36:56.684Z,101612.25
2022-07-29T09:39:39.775Z,101611.53
2022-07-29T09:42:06.044Z,101618.03
2022-07-29T09:44:28.004Z,101620.53
2022-07-29T09:47:09.379Z,101617.34
2022-07-29T09:49:31.352Z,101618.16
2022-07-29T09:52:12.151Z,101616.19
2022-07-29T09:54:43.230Z,101621.03
2022-07-29T09:57:31.106Z,101615.03
2022-07-29T10:00:19.764Z,101627.06
2022-07-29T10:03:03.451Z,101622.25
2022-07-29T10:05:36.031Z,101622.28
2022-07-29T10:07:59.119Z,101622.66
2022-07-29T10:10:34.847Z,101614.28
2022-07-29T10:13:04.595Z,101619.91
2022-07-29T10:15:38.070Z,101623.13
2022-07-29T10:18:01.054Z,101614.69
2022-07-29T10:20:24.655Z,101613.06
2022-07-29T10:22:53.687Z,101619.88
2022-07-29T10:25:18.979Z,101622.69
2022-07-29T10:27:41.516Z,101611.84
2022-07-29T10:30:05.591Z,101610.22
2022-07-29T10:33:24.074Z,101601.34
2022-07-29T10:36:07.667Z,101600.94
2022-07-29T10:38:45.980Z,101599.25
2022-07-29T10:41:44.424Z,101601.28
2022-07-29T10:44:17.345Z,101600.91
2022-07-29T10:46:42.813Z,101596.44
2022-07-29T10:49:31.127Z,101596.44
2022-07-29T10:52:10.706Z,101595.56
2022-07-29T10:54:54.665Z,101595.50
2022-07-29T10:57:54.634Z,101597.88
2022-07-29T11:00:16.842Z,101592.59
2022-07-29T11:02:45.240Z,101596.50
2022-07-29T11:05:18.793Z,101594.44
2022-07-29T11:08:21.098Z,101598.00
2022-07-29T11:10:54.336Z,101596.69
2022-07-29T11:13:57.986Z,101594.16
2022-07-29T11:16:25.012Z,101590.47
2022-07-29T11:19:13.425Z,101602.78
2022-07-29T11:22:05.382Z,101590.19
2022-07-29T11:24:32.161Z,101588.88
2022-07-29T11:27:18.061Z,101597.66
2022-07-29T11:30:03.303Z,101597.97
2022-07-29T11:32:36.056Z,101596.19
2022-07-29T11:35:38.534Z,101590.78
2022-07-29T11:38:31.985Z,101586.59
2022-07-29T11:41:25.531Z,101583.31
2022-07-29T11:46:53.963Z,101590.56
2022-07-29T11:49:31.704Z,101587.00
2022-07-29T11:51:58.229Z,101585.41
2022-07-29T11:54:27.965Z,101575.97
2022-07-29T11:56:51.198Z,101583.88
2022-07-29T11:59:15.879Z,101577.34
2022-07-29T12:01:38.221Z,101583.88
2022-07-29T12:04:06.882Z,101590.00
2022-07-29T12:06:28.897Z,101583.88
2022-07-29T12:08:51.158Z,101585.75
2022-07-29T12:11:22.688Z,101587.63
2022-07-29T12:13:45.139Z,101585.94
2022-07-29T12:16:07.154Z,101577.09
2022-07-29T12:18:29.265Z,101590.13
2022-07-29T12:21:03.661Z,101588.47
2022-07-29T12:23:25.829Z,101578.28
2022-07-29T12:25:51.500Z,101581.88
2022-07-29T12:28:27.369Z,101589.06
2022-07-29T12:30:52.022Z,101588.09
2022-07-29T12:33:30.574Z,101575.00
2022-07-29T12:36:10.344Z,101580.63
2022-07-29T12:38:36.011Z,101580.53
2022-07-29T12:40:58.557Z,101577.34
2022-07-29T12:43:26.166Z,101585.56
2022-07-29T12:45:58.311Z,101582.81
2022-07-29T12:48:40.209Z,101579.72
2022-07-29T12:51:04.733Z,101577.34
2022-07-29T12:53:27.615Z,101572.53
2022-07-29T12:55:52.646Z,101576.31
2022-07-29T12:58:14.741Z,101577.13
2022-07-29T13:00:36.994Z,101584.53
2022-07-29T13:03:01.966Z,101567.47
2022-07-29T13:05:25.146Z,101570.31
2022-07-29T13:07:55.602Z,101569.06
2022-07-29T13:10:24.352Z,101564.38
2022-07-29T13:13:11.208Z,101573.03
2022-07-29T13:15:34.519Z,101565.19
2022-07-29T13:17:56.627Z,101564.97
2022-07-29T13:20:18.522Z,101560.75
2022-07-29T13:22:48.274Z,101563.84
2022-07-29T13:25:10.940Z,101574.88
2022-07-29T13:27:37.396Z,101567.09
2022-07-29T13:30:01.750Z,101574.06
2022-07-29T13:32:28.707Z,101570.00
2022-07-29T13:34:50.914Z,101565.94
2022-07-29T13:37:12.856Z,101569.13
2022-07-29T13:39:34.775Z,101565.66
2022-07-29T13:41:57.477Z,101570.97
2022-07-29T13:44:19.624Z,101564.16
2022-07-29T13:46:41.640Z,101564.66
2022-07-29T13:49:03.501Z,101557.53
2022-07-29T13:51:25.347Z,101556.47
2022-07-29T13:53:47.167Z,101549.81
2022-07-29T13:56:09.050Z,101558.81
2022-07-29T13:58:30.822Z,101553.69
2022-07-29T14:00:52.724Z,101550.19
2022-07-29T14:03:14.757Z,101557.31
2022-07-29T14:05:36.603Z,101555.53
2022-07-29T14:07:58.466Z,101550.84
2022-07-29T14:10:20.456Z,101548.59
2022-07-29T14:12:43.095Z,101554.19
2022-07-29T14:15:05.705Z,101545.97
2022-07-29T14:17:28.013Z,101549.00
2022-07-29T14:19:49.930Z,101547.25
2022-07-29T14:22:11.973Z,101549.66
2022-07-29T14:24:34.018Z,101550.59
2022-07-29T14:27:00.007Z,101545.81
2022-07-29T14:29:22.181Z,101550.25
2022-07-29T14:31:44.820Z,101542.31
2022-07-29T14:34:06.709Z,101544.38
2022-07-29T14:36:28.534Z,101541.16
2022-07-29T14:38:50.778Z,101541.00
2022-07-29T14:41:12.837Z,101550.97
2022-07-29T14:43:35.920Z,101540.31
2022-07-29T14:46:02.900Z,101541.16
2022-07-29T14:48:27.185Z,101538.53
2022-07-29T14:50:49.175Z,101541.31
2022-07-29T14:53:12.965Z,101534.34
2022-07-29T14:55:35.078Z,101540.94
2022-07-29T14:58:07.795Z,101546.59
2022-07-29T15:00:33.346Z,101542.53
2022-07-29T15:03:03.071Z,101539.91
2022-07-29T15:05:25.311Z,101540.03
2022-07-29T15:07:47.368Z,101547.47
2022-07-29T15:10:09.198Z,101536.13
2022-07-29T15:12:32.337Z,101539.50
2022-07-29T15:14:54.315Z,101542.00
2022-07-29T15:17:16.215Z,101538.34
2022-07-29T15:19:38.067Z,101540.31
2022-07-29T15:22:00.306Z,101537.75
2022-07-29T15:24:23.126Z,101538.31
2022-07-29T15:26:45.161Z,101543.03
2022-07-29T15:29:07.012Z,101543.38
2022-07-29T15:31:28.978Z,101534.28
2022-07-29T15:33:54.415Z,101534.81
2022-07-29T15:36:50.181Z,101543.84
2022-07-29T15:39:01.105Z,101536.38
2022-07-29T15:41:23.076Z,101532.97
2022-07-29T15:43:47.760Z,101538.75
2022-07-29T15:46:28.392Z,101538.78
2022-07-29T15:48:50.286Z,101538.56
2022-07-29T15:51:13.098Z,101541.13
2022-07-29T15:53:35.302Z,101537.94
2022-07-29T15:55:57.362Z,101541.16
2022-07-29T15:58:19.213Z,101533.38
2022-07-29T16:00:41.070Z,101536.47
2022-07-29T16:03:03.100Z,101534.44
2022-07-29T16:05:25.141Z,101536.84
2022-07-29T16:07:47.043Z,101542.63
2022-07-29T16:10:09.144Z,101546.53
2022-07-29T16:12:31.090Z,101541.00
2022-07-29T16:14:53.063Z,101543.16
2022-07-29T16:17:17.234Z,101543.34
2022-07-29T16:19:39.336Z,101547.53
2022-07-29T16:22:01.162Z,101544.50
2022-07-29T16:24:23.996Z,101549.63
2022-07-29T16:26:45.900Z,101544.50
2022-07-29T16:29:07.716Z,101542.66
2022-07-29T16:31:29.795Z,101546.47
2022-07-29T16:33:55.415Z,101543.78
2022-07-29T16:36:18.812Z,101541.03
2022-07-29T16:38:47.024Z,101551.66
2022-07-29T16:41:09.396Z,101551.38
2022-07-29T16:43:31.269Z,101539.06
2022-07-29T16:45:53.295Z,101541.19
2022-07-29T16:48:17.334Z,101548.91
2022-07-29T16:50:40.613Z,101542.06
2022-07-29T16:53:02.390Z,101538.50
2022-07-29T16:55:25.018Z,101540.56
2022-07-29T16:57:47.611Z,101538.63
2022-07-29T17:00:10.689Z,101547.13
2022-07-29T17:02:32.791Z,101541.94
2022-07-29T17:04:54.751Z,101544.00
2022-07-29T17:07:17.304Z,101536.72
2022-07-29T17:09:39.295Z,101537.09
2022-07-29T17:12:01.404Z,101545.53
2022-07-29T17:14:26.313Z,101541.19
2022-07-29T17:16:55.018Z,101538.88
2022-07-29T17:19:23.019Z,101540.19
2022-07-29T17:21:46.777Z,101542.00
2022-07-29T17:24:11.132Z,101543.53
2022-07-29T17:26:33.188Z,101546.66
2022-07-29T17:28:55.646Z,101554.72
2022-07-29T17:31:17.847Z,101550.28
2022-07-29T17:33:39.779Z,101541.41
2022-07-29T17:36:20.524Z,101553.59
2022-07-29T17:38:42.414Z,101545.59
2022-07-29T17:41:07.817Z,101552.97
2022-07-29T17:43:31.501Z,101552.22
2022-07-29T17:45:55.872Z,101550.59
2022-07-29T17:48:21.320Z,101550.69
2022-07-29T17:50:43.278Z,101547.50
2022-07-29T17:53:15.656Z,101556.78
2022-07-29T17:55:39.479Z,101558.38
2022-07-29T17:58:01.276Z,101554.28
2022-07-29T18:00:24.777Z,101561.81
2022-07-29T18:02:46.705Z,101557.28
2022-07-29T18:05:08.802Z,101566.97
2022-07-29T18:07:30.664Z,101564.03
2022-07-29T18:09:53.296Z,101569.56
2022-07-29T18:12:17.188Z,101560.56
2022-07-29T18:14:39.205Z,101566.09
2022-07-29T18:17:01.404Z,101569.53
2022-07-29T18:19:23.460Z,101573.00
2022-07-29T18:21:54.103Z,101575.22
2022-07-29T18:24:17.206Z,101581.53
2022-07-29T18:26:39.044Z,101580.69
2022-07-29T18:29:00.838Z,101572.91
2022-07-29T18:31:23.565Z,101576.34
2022-07-29T18:33:45.386Z,101574.53
2022-07-29T18:36:11.668Z,101576.06
2022-07-29T18:38:34.368Z,101578.53
2022-07-29T18:40:56.765Z,101575.19
2022-07-29T18:43:18.537Z,101576.88
2022-07-29T18:45:42.544Z,101578.19
2022-07-29T18:48:05.341Z,101574.28
2022-07-29T18:50:29.818Z,101578.31
2022-07-29T18:52:52.390Z,101578.69
2022-07-29T18:55:14.373Z,101579.41
2022-07-29T18:57:54.393Z,101593.75
2022-07-29T19:00:18.710Z,101593.59
2022-07-29T19:02:40.649Z,101594.19
2022-07-29T19:05:07.216Z,101590.66
2022-07-29T19:07:29.969Z,101599.25
2022-07-29T19:09:53.175Z,101603.34
2022-07-29T19:12:15.003Z,101607.84
2022-07-29T19:14:36.917Z,101598.66
2022-07-29T19:16:59.258Z,101592.25
2022-07-29T19:19:21.320Z,101606.78
2022-07-29T19:21:43.567Z,101611.28
2022-07-29T19:24:11.014Z,101618.94
2022-07-29T19:26:36.709Z,101624.63
2022-07-29T19:28:58.803Z,101634.31
2022-07-29T19:31:20.680Z,101631.94
2022-07-29T19:33:42.907Z,101641.19
2022-07-29T19:36:05.012Z,101635.16
2022-07-29T19:38:26.817Z,101646.41
2022-07-29T19:40:48.759Z,101645.22
2022-07-29T19:43:51.112Z,101651.63
2022-07-29T19:45:52.711Z,101654.06
2022-07-29T19:48:14.645Z,101652.44
2022-07-29T19:50:36.905Z,101659.28
2022-07-29T19:53:00.448Z,101654.03
2022-07-29T19:55:23.611Z,101658.06
2022-07-29T19:57:46.486Z,101666.09
2022-07-29T20:00:13.641Z,101662.47
2022-07-29T20:02:35.808Z,101672.84
2022-07-29T20:04:57.697Z,101677.63
2022-07-29T20:07:20.579Z,101677.25
2022-07-29T20:09:42.667Z,101689.63
2022-07-29T20:12:06.561Z,101687.59
2022-07-29T20:14:28.395Z,101681.19
2022-07-29T20:16:51.242Z,101683.97
2022-07-29T20:19:13.601Z,101685.13
2022-07-29T20:21:36.442Z,101689.91
2022-07-29T20:24:00.433Z,101691.06
2022-07-29T20:26:22.379Z,101684.25
2022-07-29T20:28:48.928Z,101688.56
2022-07-29T20:31:11.802Z,101688.94
2022-07-29T20:33:33.747Z,101686.09
2022-07-29T20:35:55.569Z,101682.88
2022-07-29T20:38:18.484Z,101691.66
2022-07-29T20:40:40.442Z,101691.22
2022-07-29T20:43:02.412Z,101690.75
2022-07-29T20:45:24.735Z,101693.13
2022-07-29T20:47:46.648Z,101695.94
2022-07-29T20:50:10.114Z,101693.47
2022-07-29T20:52:32.034Z,101687.41
2022-07-29T20:54:53.941Z,101693.00
2022-07-29T20:57:15.792Z,101692.16
2022-07-29T20:59:38.608Z,101698.56
2022-07-29T21:02:02.765Z,101699.31
2022-07-29T21:04:30.512Z,101704.09
2022-07-29T21:06:53.311Z,101702.00
2022-07-29T21:09:15.145Z,101707.97
2022-07-29T21:11:44.396Z,101704.75
2022-07-29T21:14:07.093Z,101707.09
2022-07-29T21:16:33.329Z,101710.25
2022-07-29T21:18:55.130Z,101705.00
2022-07-29T21:21:16.983Z,101702.16
2022-07-29T21:23:40.099Z,101710.94
2022-07-29T21:26:02.581Z,101710.53
2022-07-29T21:28:27.146Z,101707.69
2022-07-29T21:30:49.003Z,101709.25
2022-07-29T21:33:10.983Z,101714.00
2022-07-29T21:36:06.577Z,101705.56
2022-07-29T21:38:16.459Z,101709.16
2022-07-29T21:40:38.687Z,101710.28
2022-07-29T21:43:00.730Z,101698.66
2022-07-29T21:45:22.543Z,101702.25
2022-07-29T21:47:44.370Z,101712.22
2022-07-29T21:50:06.840Z,101712.59
2022-07-29T21:52:31.833Z,101711.34
2022-07-29T21:54:53.884Z,101709.31
2022-07-29T21:57:16.226Z,101710.84
2022-07-29T21:59:38.206Z,101708.38
2022-07-29T22:02:02.791Z,101710.28
2022-07-29T22:04:24.620Z,101702.22
2022-07-29T22:06:46.476Z,101704.19
2022-07-29T22:09:08.372Z,101702.97
2022-07-29T22:11:30.521Z,101698.53
2022-07-29T22:13:52.508Z,101699.31
2022-07-29T22:16:15.032Z,101694.84
2022-07-29T22:18:36.968Z,101697.19
2022-07-29T22:20:58.808Z,101690.72
2022-07-29T22:23:20.740Z,101687.44
2022-07-29T22:25:42.589Z,101696.97
2022-07-29T22:28:04.664Z,101696.09
2022-07-29T22:30:26.737Z,101697.66
2022-07-29T22:32:49.682Z,101696.44
2022-07-29T22:35:11.853Z,101696.00
2022-07-29T22:37:33.977Z,101697.19
2022-07-29T22:39:56.163Z,101698.38
2022-07-29T22:42:18.071Z,101699.94
2022-07-29T22:44:39.861Z,101697.53
2022-07-29T22:47:02.044Z,101701.94
2022-07-29T22:49:24.078Z,101695.91
2022-07-29T22:51:45.991Z,101698.69
2022-07-29T22:54:07.860Z,101707.84
2022-07-29T22:56:29.818Z,101707.41
2022-07-29T22:58:51.874Z,101714.97
2022-07-29T23:01:14.346Z,101705.69
2022-07-29T23:03:36.497Z,101718.81
2022-07-29T23:05:58.347Z,101722.00
2022-07-29T23:08:20.821Z,101711.94
2022-07-29T23:10:42.613Z,101717.09
2022-07-29T23:13:04.485Z,101710.59
2022-07-29T23:15:26.310Z,101707.19
2022-07-29T23:17:48.123Z,101703.41
2022-07-29T23:20:10.548Z,101707.63
2022-07-29T23:22:32.363Z,101712.28
2022-07-29T23:24:54.258Z,101711.00
2022-07-29T23:27:16.153Z,101715.69
2022-07-29T23:29:38.033Z,101708.41
2022-07-29T23:31:59.852Z,101707.13
2022-07-29T23:34:21.613Z,101711.38
2022-07-29T23:36:43.883Z,101703.66
2022-07-29T23:39:11.035Z,101705.97
2022-07-29T23:41:32.929Z,101709.50
2022-07-29T23:43:54.693Z,101714.19
2022-07-29T23:46:16.625Z,101716.06
2022-07-29T23:48:45.738Z,101714.03
2022-07-29T23:51:07.633Z,101707.19
2022-07-29T23:53:29.467Z,101711.88
2022-07-29T23:55:51.287Z,101711.03
2022-07-29T23:58:13.035Z,101706.53
